RYR3HM LDDU-LOWW
Flight info
| Callsign | RYR3HM |
|---|---|
| Flight time | N/A |
| Altitude | 38000 |
| Route | MOKUN L187 GEBNI DCT EDALA DCT MARIL DCT OBUTI OBUTI2W |
| Aircraft | A320/M-SDE3FGHIRWY/LB1 |
Departure
| Time | 2026-04-27 13:57 |
|---|---|
| Airport | Dubrovnik Ruđer Bošković Airport (LDDU) |
Arrival
| Time | N/A |
|---|---|
| Airport | Vienna International Airport (LOWW) |
| Time | Latitude | Longitude | Altitude | Speed | Heading |
|---|---|---|---|---|---|
| 2026-04-27 13:39 | 42.56191 | 18.26039 | 534 ft | 0 kts | 208° |
| 2026-04-27 13:48 | 42.56199 | 18.26045 | 534 ft | 3 kts | 208° |
| 2026-04-27 13:48 | 42.56217 | 18.26058 | 534 ft | 3 kts | 208° |
| 2026-04-27 13:48 | 42.56233 | 18.26068 | 534 ft | 3 kts | 181° |
| 2026-04-27 13:49 | 42.56249 | 18.26063 | 534 ft | 3 kts | 133° |
| 2026-04-27 13:49 | 42.56256 | 18.26051 | 534 ft | 2 kts | 118° |
| 2026-04-27 13:49 | 42.56263 | 18.26033 | 534 ft | 1 kts | 118° |
| 2026-04-27 13:49 | 42.56264 | 18.26031 | 534 ft | 0 kts | 118° |
| 2026-04-27 13:52 | 42.56259 | 18.26042 | 534 ft | 2 kts | 118° |
| 2026-04-27 13:52 | 42.56251 | 18.26064 | 534 ft | 3 kts | 118° |
| 2026-04-27 13:52 | 42.56243 | 18.26085 | 534 ft | 2 kts | 118° |
| 2026-04-27 13:53 | 42.56180 | 18.26242 | 534 ft | 17 kts | 118° |
| 2026-04-27 13:53 | 42.56114 | 18.26410 | 534 ft | 24 kts | 118° |
| 2026-04-27 13:53 | 42.56033 | 18.26611 | 534 ft | 25 kts | 118° |
| 2026-04-27 13:54 | 42.55950 | 18.26820 | 534 ft | 26 kts | 118° |
| 2026-04-27 13:54 | 42.55863 | 18.27040 | 534 ft | 27 kts | 118° |
| 2026-04-27 13:54 | 42.55771 | 18.27274 | 534 ft | 29 kts | 118° |
| 2026-04-27 13:54 | 42.55679 | 18.27508 | 534 ft | 25 kts | 118° |
| 2026-04-27 13:55 | 42.55610 | 18.27678 | 534 ft | 19 kts | 118° |
| 2026-04-27 13:55 | 42.55550 | 18.27828 | 534 ft | 17 kts | 118° |
| 2026-04-27 13:55 | 42.55496 | 18.27965 | 534 ft | 16 kts | 118° |
| 2026-04-27 13:55 | 42.55469 | 18.28096 | 534 ft | 14 kts | 70° |
| 2026-04-27 13:56 | 42.55542 | 18.28172 | 533 ft | 13 kts | 26° |
| 2026-04-27 13:56 | 42.55620 | 18.28131 | 533 ft | 14 kts | 298° |
| 2026-04-27 13:56 | 42.55649 | 18.28058 | 532 ft | 10 kts | 298° |
| 2026-04-27 13:56 | 42.55756 | 18.27787 | 532 ft | 68 kts | 298° |
| 2026-04-27 13:57 | 42.56089 | 18.26944 | 535 ft | 132 kts | 298° |
| 2026-04-27 13:57 | 42.56591 | 18.25702 | 819 ft | 157 kts | 298° |
| 2026-04-27 13:57 | 42.57128 | 18.24380 | 1521 ft | 161 kts | 298° |
| 2026-04-27 13:57 | 42.57669 | 18.23011 | 2157 ft | 172 kts | 297° |
| 2026-04-27 13:58 | 42.58271 | 18.21478 | 2610 ft | 196 kts | 297° |
| 2026-04-27 13:58 | 42.58952 | 18.19744 | 2996 ft | 221 kts | 298° |
| 2026-04-27 13:58 | 42.59715 | 18.17807 | 3464 ft | 245 kts | 298° |
| 2026-04-27 13:58 | 42.60542 | 18.15711 | 4217 ft | 256 kts | 298° |
| 2026-04-27 13:59 | 42.61392 | 18.13560 | 5175 ft | 261 kts | 298° |
| 2026-04-27 13:59 | 42.62256 | 18.11371 | 6078 ft | 267 kts | 298° |
| 2026-04-27 13:59 | 42.63143 | 18.09120 | 6931 ft | 274 kts | 298° |
| 2026-04-27 13:59 | 42.64049 | 18.06822 | 7798 ft | 278 kts | 299° |
| 2026-04-27 14:00 | 42.64970 | 18.04485 | 8685 ft | 283 kts | 298° |
| 2026-04-27 14:00 | 42.65904 | 18.02111 | 9573 ft | 287 kts | 298° |
| 2026-04-27 14:00 | 42.66854 | 17.99687 | 10274 ft | 299 kts | 298° |
| 2026-04-27 14:00 | 42.68015 | 17.97226 | 10577 ft | 321 kts | 314° |
| 2026-04-27 14:01 | 42.69865 | 17.95450 | 11091 ft | 333 kts | 338° |
| 2026-04-27 14:01 | 42.72072 | 17.94441 | 11865 ft | 337 kts | 342° |
| 2026-04-27 14:01 | 42.74321 | 17.93479 | 12679 ft | 340 kts | 342° |
| 2026-04-27 14:01 | 42.76592 | 17.92512 | 13514 ft | 344 kts | 342° |
| 2026-04-27 14:02 | 42.78884 | 17.91535 | 14280 ft | 347 kts | 342° |
| 2026-04-27 14:02 | 42.81200 | 17.90549 | 15000 ft | 350 kts | 342° |
| 2026-04-27 14:02 | 42.83531 | 17.89552 | 15747 ft | 352 kts | 341° |
| 2026-04-27 14:02 | 42.85882 | 17.88541 | 16406 ft | 357 kts | 341° |
| 2026-04-27 14:03 | 42.88254 | 17.87518 | 17158 ft | 359 kts | 341° |
| 2026-04-27 14:03 | 42.90641 | 17.86490 | 17884 ft | 360 kts | 341° |
| 2026-04-27 14:03 | 42.93042 | 17.85457 | 18544 ft | 364 kts | 341° |
| 2026-04-27 14:03 | 42.95474 | 17.84410 | 19122 ft | 368 kts | 341° |
| 2026-04-27 14:04 | 42.97093 | 17.83710 | 19493 ft | 370 kts | 341° |
| 2026-04-27 14:04 | 42.99560 | 17.82643 | 20069 ft | 373 kts | 340° |
| 2026-04-27 14:04 | 43.02048 | 17.81567 | 20677 ft | 376 kts | 340° |
| 2026-04-27 14:04 | 43.04553 | 17.80485 | 21309 ft | 379 kts | 340° |
| 2026-04-27 14:05 | 43.07078 | 17.79393 | 21910 ft | 382 kts | 340° |
| 2026-04-27 14:05 | 43.09622 | 17.78289 | 22511 ft | 385 kts | 340° |
| 2026-04-27 14:05 | 43.12182 | 17.77177 | 23104 ft | 387 kts | 340° |
| 2026-04-27 14:05 | 43.14759 | 17.76057 | 23671 ft | 390 kts | 339° |
| 2026-04-27 14:06 | 43.17355 | 17.74932 | 24143 ft | 392 kts | 339° |
| 2026-04-27 14:06 | 43.19965 | 17.73799 | 24608 ft | 395 kts | 340° |
| 2026-04-27 14:06 | 43.22588 | 17.72657 | 25060 ft | 397 kts | 340° |
| 2026-04-27 14:06 | 43.25227 | 17.71506 | 25507 ft | 399 kts | 340° |
| 2026-04-27 14:07 | 43.27881 | 17.70349 | 25919 ft | 401 kts | 340° |
| 2026-04-27 14:07 | 43.30549 | 17.69187 | 26337 ft | 403 kts | 340° |
| 2026-04-27 14:07 | 43.33230 | 17.68021 | 26743 ft | 406 kts | 340° |
| 2026-04-27 14:07 | 43.35931 | 17.66844 | 27140 ft | 408 kts | 340° |
| 2026-04-27 14:08 | 43.38642 | 17.65661 | 27533 ft | 410 kts | 340° |
| 2026-04-27 14:08 | 43.41371 | 17.64467 | 27932 ft | 413 kts | 340° |
| 2026-04-27 14:08 | 43.44117 | 17.63266 | 28317 ft | 415 kts | 340° |
| 2026-04-27 14:08 | 43.46879 | 17.62057 | 28671 ft | 417 kts | 340° |
| 2026-04-27 14:09 | 43.49651 | 17.60838 | 29043 ft | 419 kts | 340° |
| 2026-04-27 14:09 | 43.52437 | 17.59609 | 29402 ft | 421 kts | 340° |
| 2026-04-27 14:09 | 43.55233 | 17.58372 | 29756 ft | 423 kts | 340° |
| 2026-04-27 14:09 | 43.58049 | 17.57131 | 30075 ft | 426 kts | 340° |
| 2026-04-27 14:10 | 43.60877 | 17.55887 | 30371 ft | 428 kts | 340° |
| 2026-04-27 14:10 | 43.63715 | 17.54638 | 30663 ft | 429 kts | 340° |
| 2026-04-27 14:10 | 43.66565 | 17.53379 | 30924 ft | 430 kts | 340° |
| 2026-04-27 14:10 | 43.69421 | 17.52115 | 31166 ft | 432 kts | 340° |
| 2026-04-27 14:11 | 43.72285 | 17.50845 | 31431 ft | 433 kts | 340° |
| 2026-04-27 14:11 | 43.75153 | 17.49574 | 31737 ft | 433 kts | 340° |
| 2026-04-27 14:11 | 43.78019 | 17.48303 | 32082 ft | 431 kts | 340° |
| 2026-04-27 14:11 | 43.80870 | 17.47038 | 32417 ft | 430 kts | 341° |
| 2026-04-27 14:12 | 43.83717 | 17.45775 | 32760 ft | 429 kts | 341° |
| 2026-04-27 14:12 | 43.86558 | 17.44518 | 33113 ft | 428 kts | 341° |
| 2026-04-27 14:12 | 43.89389 | 17.43262 | 33489 ft | 426 kts | 341° |
| 2026-04-27 14:12 | 43.92210 | 17.42005 | 33834 ft | 425 kts | 341° |
| 2026-04-27 14:13 | 43.95022 | 17.40745 | 34189 ft | 424 kts | 341° |
| 2026-04-27 14:13 | 43.97827 | 17.39486 | 34480 ft | 423 kts | 341° |
| 2026-04-27 14:13 | 44.00627 | 17.38230 | 34774 ft | 423 kts | 341° |
| 2026-04-27 14:13 | 44.03426 | 17.36976 | 35046 ft | 423 kts | 341° |
| 2026-04-27 14:14 | 44.06223 | 17.35724 | 35328 ft | 422 kts | 341° |
| 2026-04-27 14:14 | 44.09019 | 17.34470 | 35610 ft | 422 kts | 341° |
| 2026-04-27 14:14 | 44.11811 | 17.33215 | 35864 ft | 422 kts | 341° |
| 2026-04-27 14:14 | 44.14604 | 17.31961 | 36106 ft | 421 kts | 341° |
| 2026-04-27 14:15 | 44.17389 | 17.30709 | 36318 ft | 421 kts | 341° |
| 2026-04-27 14:15 | 44.20173 | 17.29453 | 36576 ft | 420 kts | 341° |
| 2026-04-27 14:15 | 44.22956 | 17.28197 | 36814 ft | 420 kts | 341° |
| 2026-04-27 14:15 | 44.25736 | 17.26945 | 37063 ft | 420 kts | 341° |
| 2026-04-27 14:16 | 44.28516 | 17.25693 | 37307 ft | 419 kts | 341° |
| 2026-04-27 14:16 | 44.31291 | 17.24442 | 37531 ft | 419 kts | 341° |
| 2026-04-27 14:16 | 44.34068 | 17.23187 | 37717 ft | 419 kts | 341° |
| 2026-04-27 14:16 | 44.36840 | 17.21932 | 37922 ft | 419 kts | 341° |
| 2026-04-27 14:17 | 44.39614 | 17.20672 | 38093 ft | 419 kts | 341° |
| 2026-04-27 14:17 | 44.45160 | 17.18150 | 38116 ft | 419 kts | 341° |
| 2026-04-27 14:18 | 44.50695 | 17.15639 | 38124 ft | 418 kts | 341° |
| 2026-04-27 14:18 | 44.56232 | 17.13120 | 38128 ft | 418 kts | 341° |
| 2026-04-27 14:19 | 44.61768 | 17.10590 | 38125 ft | 418 kts | 341° |
| 2026-04-27 14:19 | 44.67303 | 17.08056 | 38132 ft | 419 kts | 341° |
| 2026-04-27 14:20 | 44.72849 | 17.05514 | 38144 ft | 419 kts | 341° |
| 2026-04-27 14:20 | 44.78398 | 17.02962 | 38147 ft | 420 kts | 341° |
| 2026-04-27 14:21 | 44.83948 | 17.00407 | 38149 ft | 420 kts | 341° |
| 2026-04-27 14:21 | 44.89498 | 16.97842 | 38156 ft | 420 kts | 340° |
| 2026-04-27 14:22 | 44.95047 | 16.95274 | 38156 ft | 420 kts | 341° |
| 2026-04-27 14:22 | 45.00597 | 16.92698 | 38155 ft | 420 kts | 341° |
| 2026-04-27 14:23 | 45.06144 | 16.90127 | 38151 ft | 419 kts | 341° |
| 2026-04-27 14:23 | 45.11692 | 16.87557 | 38168 ft | 419 kts | 340° |
| 2026-04-27 14:24 | 45.17240 | 16.84980 | 38165 ft | 420 kts | 340° |
| 2026-04-27 14:24 | 45.22783 | 16.82388 | 38160 ft | 419 kts | 340° |
| 2026-04-27 14:25 | 45.28319 | 16.79784 | 38154 ft | 419 kts | 340° |
| 2026-04-27 14:25 | 45.33857 | 16.77186 | 38177 ft | 419 kts | 340° |
| 2026-04-27 14:26 | 45.39383 | 16.74589 | 38170 ft | 418 kts | 340° |
| 2026-04-27 14:26 | 45.44910 | 16.71983 | 38168 ft | 418 kts | 340° |
| 2026-04-27 14:27 | 45.50425 | 16.69385 | 38169 ft | 418 kts | 340° |
| 2026-04-27 14:27 | 45.55948 | 16.66774 | 38169 ft | 418 kts | 340° |
| 2026-04-27 14:28 | 45.61465 | 16.64161 | 38172 ft | 418 kts | 340° |
| 2026-04-27 14:28 | 45.66948 | 16.61563 | 38167 ft | 418 kts | 340° |
| 2026-04-27 14:29 | 45.72468 | 16.58941 | 38171 ft | 418 kts | 340° |
| 2026-04-27 14:29 | 45.78016 | 16.56287 | 38189 ft | 418 kts | 340° |
| 2026-04-27 14:30 | 45.83527 | 16.53659 | 38184 ft | 417 kts | 340° |
| 2026-04-27 14:30 | 45.88994 | 16.51055 | 38179 ft | 417 kts | 340° |
| 2026-04-27 14:30 | 45.91777 | 16.49715 | 37909 ft | 416 kts | 340° |
| 2026-04-27 14:31 | 45.94515 | 16.48391 | 37633 ft | 415 kts | 340° |
| 2026-04-27 14:31 | 45.97214 | 16.47087 | 37365 ft | 415 kts | 340° |
| 2026-04-27 14:31 | 45.99948 | 16.45769 | 37098 ft | 414 kts | 340° |
| 2026-04-27 14:31 | 46.02679 | 16.44455 | 36826 ft | 414 kts | 340° |
| 2026-04-27 14:32 | 46.05412 | 16.43139 | 36563 ft | 414 kts | 340° |
| 2026-04-27 14:32 | 46.08143 | 16.41823 | 36310 ft | 414 kts | 340° |
| 2026-04-27 14:32 | 46.10872 | 16.40505 | 36048 ft | 414 kts | 340° |
| 2026-04-27 14:32 | 46.13606 | 16.39182 | 35800 ft | 414 kts | 340° |
| 2026-04-27 14:33 | 46.16336 | 16.37860 | 35306 ft | 415 kts | 340° |
| 2026-04-27 14:33 | 46.19067 | 16.36533 | 34511 ft | 411 kts | 340° |
| 2026-04-27 14:33 | 46.21748 | 16.35233 | 33709 ft | 404 kts | 340° |
| 2026-04-27 14:33 | 46.24414 | 16.33939 | 32836 ft | 406 kts | 340° |
| 2026-04-27 14:34 | 46.27070 | 16.32649 | 32386 ft | 399 kts | 340° |
| 2026-04-27 14:34 | 46.29682 | 16.31381 | 31849 ft | 394 kts | 340° |
| 2026-04-27 14:34 | 46.32269 | 16.30123 | 31309 ft | 390 kts | 340° |
| 2026-04-27 14:34 | 46.34829 | 16.28874 | 30782 ft | 386 kts | 340° |
| 2026-04-27 14:35 | 46.37371 | 16.27658 | 30266 ft | 384 kts | 343° |
| 2026-04-27 14:35 | 46.39984 | 16.26897 | 29858 ft | 385 kts | 349° |
| 2026-04-27 14:35 | 46.42646 | 16.26284 | 29545 ft | 389 kts | 349° |
| 2026-04-27 14:35 | 46.45318 | 16.25656 | 29234 ft | 389 kts | 349° |
| 2026-04-27 14:36 | 46.47981 | 16.25022 | 28913 ft | 387 kts | 349° |
| 2026-04-27 14:36 | 46.50634 | 16.24387 | 28594 ft | 386 kts | 349° |
| 2026-04-27 14:36 | 46.53275 | 16.23752 | 28273 ft | 384 kts | 349° |
| 2026-04-27 14:36 | 46.55907 | 16.23123 | 27958 ft | 383 kts | 349° |
| 2026-04-27 14:37 | 46.58530 | 16.22502 | 27636 ft | 381 kts | 349° |
| 2026-04-27 14:37 | 46.61138 | 16.21886 | 27332 ft | 379 kts | 349° |
| 2026-04-27 14:37 | 46.63741 | 16.21268 | 27030 ft | 378 kts | 349° |
| 2026-04-27 14:37 | 46.66330 | 16.20653 | 26712 ft | 376 kts | 349° |
| 2026-04-27 14:38 | 46.68906 | 16.20041 | 26398 ft | 375 kts | 349° |
| 2026-04-27 14:38 | 46.71474 | 16.19430 | 26089 ft | 373 kts | 349° |
| 2026-04-27 14:38 | 46.74032 | 16.18820 | 25776 ft | 372 kts | 349° |
| 2026-04-27 14:38 | 46.76579 | 16.18215 | 25477 ft | 370 kts | 349° |
| 2026-04-27 14:39 | 46.79116 | 16.17609 | 25169 ft | 369 kts | 349° |
| 2026-04-27 14:39 | 46.81645 | 16.16998 | 24865 ft | 368 kts | 349° |
| 2026-04-27 14:39 | 46.84164 | 16.16388 | 24560 ft | 366 kts | 349° |
| 2026-04-27 14:39 | 46.86677 | 16.15781 | 24268 ft | 365 kts | 349° |
| 2026-04-27 14:40 | 46.89179 | 16.15178 | 23957 ft | 364 kts | 349° |
| 2026-04-27 14:40 | 46.91675 | 16.14580 | 23642 ft | 363 kts | 349° |
| 2026-04-27 14:40 | 46.94161 | 16.13986 | 23324 ft | 361 kts | 349° |
| 2026-04-27 14:40 | 46.96638 | 16.13393 | 23022 ft | 360 kts | 349° |
| 2026-04-27 14:41 | 46.99105 | 16.12799 | 22728 ft | 359 kts | 348° |
| 2026-04-27 14:41 | 47.01566 | 16.12207 | 22432 ft | 357 kts | 348° |
| 2026-04-27 14:41 | 47.04014 | 16.11618 | 22140 ft | 356 kts | 348° |
| 2026-04-27 14:41 | 47.06453 | 16.11026 | 21842 ft | 355 kts | 348° |
| 2026-04-27 14:42 | 47.08883 | 16.10435 | 21560 ft | 353 kts | 348° |
| 2026-04-27 14:42 | 47.11301 | 16.09847 | 21255 ft | 351 kts | 348° |
| 2026-04-27 14:42 | 47.13709 | 16.09265 | 20967 ft | 350 kts | 348° |
| 2026-04-27 14:42 | 47.16109 | 16.08688 | 20679 ft | 349 kts | 348° |
| 2026-04-27 14:43 | 47.18499 | 16.08113 | 20393 ft | 347 kts | 348° |
| 2026-04-27 14:43 | 47.20882 | 16.07536 | 20104 ft | 346 kts | 348° |
| 2026-04-27 14:43 | 47.23255 | 16.06956 | 19817 ft | 345 kts | 348° |
| 2026-04-27 14:43 | 47.25616 | 16.06375 | 19525 ft | 344 kts | 348° |
| 2026-04-27 14:44 | 47.27970 | 16.05797 | 19237 ft | 343 kts | 348° |
| 2026-04-27 14:44 | 47.30318 | 16.05219 | 18961 ft | 342 kts | 348° |
| 2026-04-27 14:44 | 47.32663 | 16.04646 | 18686 ft | 342 kts | 348° |
| 2026-04-27 14:44 | 47.35014 | 16.04119 | 18391 ft | 342 kts | 352° |
| 2026-04-27 14:45 | 47.37399 | 16.04176 | 18089 ft | 345 kts | 4° |
| 2026-04-27 14:45 | 47.39741 | 16.04985 | 17823 ft | 348 kts | 15° |
| 2026-04-27 14:45 | 47.42031 | 16.06133 | 17557 ft | 347 kts | 15° |
| 2026-04-27 14:45 | 47.44309 | 16.07271 | 17296 ft | 345 kts | 15° |
| 2026-04-27 14:46 | 47.46583 | 16.08399 | 17030 ft | 344 kts | 15° |
| 2026-04-27 14:46 | 47.48082 | 16.09142 | 16852 ft | 343 kts | 15° |
| 2026-04-27 14:46 | 47.50342 | 16.10259 | 16598 ft | 342 kts | 15° |
| 2026-04-27 14:46 | 47.52592 | 16.11373 | 16325 ft | 340 kts | 15° |
| 2026-04-27 14:47 | 47.54826 | 16.12482 | 16056 ft | 338 kts | 15° |
| 2026-04-27 14:47 | 47.57045 | 16.13584 | 15811 ft | 336 kts | 15° |
| 2026-04-27 14:47 | 47.59257 | 16.14684 | 15562 ft | 334 kts | 15° |
| 2026-04-27 14:47 | 47.61459 | 16.15781 | 15297 ft | 333 kts | 15° |
| 2026-04-27 14:48 | 47.63651 | 16.16878 | 15043 ft | 332 kts | 15° |
| 2026-04-27 14:48 | 47.68007 | 16.19063 | 14538 ft | 329 kts | 15° |
| 2026-04-27 14:48 | 47.70170 | 16.20149 | 14283 ft | 328 kts | 15° |
| 2026-04-27 14:49 | 47.72328 | 16.21231 | 14030 ft | 326 kts | 15° |
| 2026-04-27 14:49 | 47.74398 | 16.22616 | 13769 ft | 329 kts | 28° |
| 2026-04-27 14:49 | 47.76186 | 16.24762 | 13505 ft | 334 kts | 43° |
| 2026-04-27 14:49 | 47.77556 | 16.27563 | 13236 ft | 338 kts | 58° |
| 2026-04-27 14:50 | 47.78438 | 16.30822 | 12987 ft | 341 kts | 68° |
| 2026-04-27 14:50 | 47.79208 | 16.34154 | 12723 ft | 341 kts | 68° |
| 2026-04-27 14:50 | 47.79983 | 16.37478 | 12460 ft | 340 kts | 67° |
| 2026-04-27 14:50 | 47.80762 | 16.40796 | 12201 ft | 339 kts | 67° |
| 2026-04-27 14:51 | 47.81539 | 16.44101 | 11937 ft | 338 kts | 67° |
| 2026-04-27 14:51 | 47.82314 | 16.47406 | 11565 ft | 339 kts | 67° |
| 2026-04-27 14:51 | 47.83088 | 16.50715 | 11068 ft | 338 kts | 67° |
| 2026-04-27 14:51 | 47.83854 | 16.53998 | 10572 ft | 330 kts | 67° |
| 2026-04-27 14:52 | 47.84590 | 16.57172 | 10057 ft | 319 kts | 66° |
| 2026-04-27 14:52 | 47.85303 | 16.60252 | 9473 ft | 310 kts | 67° |
| 2026-04-27 14:52 | 47.85997 | 16.63246 | 8898 ft | 303 kts | 68° |
| 2026-04-27 14:52 | 47.86679 | 16.66187 | 8348 ft | 299 kts | 68° |
| 2026-04-27 14:53 | 47.87359 | 16.69112 | 7796 ft | 299 kts | 68° |
| 2026-04-27 14:53 | 47.88036 | 16.72031 | 7237 ft | 297 kts | 68° |
| 2026-04-27 14:53 | 47.88704 | 16.74926 | 6685 ft | 293 kts | 68° |
| 2026-04-27 14:53 | 47.89358 | 16.77769 | 6071 ft | 287 kts | 69° |
| 2026-04-27 14:54 | 47.89984 | 16.80557 | 5445 ft | 280 kts | 71° |
| 2026-04-27 14:54 | 47.90855 | 16.83090 | 4800 ft | 271 kts | 47° |
| 2026-04-27 14:54 | 47.92270 | 16.84742 | 4569 ft | 247 kts | 25° |
| 2026-04-27 14:54 | 47.93838 | 16.85502 | 4469 ft | 231 kts | 6° |
| 2026-04-27 14:55 | 47.95390 | 16.85472 | 4380 ft | 217 kts | 348° |
| 2026-04-27 14:55 | 47.96790 | 16.84759 | 4298 ft | 211 kts | 333° |
| 2026-04-27 14:55 | 47.98100 | 16.83795 | 4219 ft | 210 kts | 334° |
| 2026-04-27 14:55 | 47.99411 | 16.82843 | 4137 ft | 207 kts | 334° |
| 2026-04-27 14:56 | 48.00680 | 16.81922 | 4097 ft | 201 kts | 334° |
| 2026-04-27 14:56 | 48.01928 | 16.81017 | 3996 ft | 199 kts | 334° |
| 2026-04-27 14:56 | 48.03115 | 16.80027 | 3875 ft | 192 kts | 322° |
| 2026-04-27 14:56 | 48.04001 | 16.78570 | 3679 ft | 190 kts | 302° |
| 2026-04-27 14:57 | 48.04597 | 16.76814 | 3446 ft | 189 kts | 296° |
| 2026-04-27 14:57 | 48.05159 | 16.75102 | 3200 ft | 177 kts | 297° |
| 2026-04-27 14:57 | 48.05695 | 16.73473 | 2984 ft | 171 kts | 297° |
| 2026-04-27 14:57 | 48.06215 | 16.71888 | 2747 ft | 166 kts | 297° |
| 2026-04-27 14:58 | 48.06702 | 16.70405 | 2533 ft | 153 kts | 297° |
| 2026-04-27 14:58 | 48.07164 | 16.68998 | 2327 ft | 148 kts | 297° |
| 2026-04-27 14:58 | 48.07615 | 16.67622 | 2125 ft | 146 kts | 297° |
| 2026-04-27 14:58 | 48.08060 | 16.66262 | 1933 ft | 146 kts | 297° |
| 2026-04-27 14:59 | 48.08504 | 16.64907 | 1731 ft | 145 kts | 297° |
| 2026-04-27 14:59 | 48.08941 | 16.63556 | 1541 ft | 144 kts | 296° |
| 2026-04-27 14:59 | 48.09367 | 16.62214 | 1341 ft | 142 kts | 297° |
| 2026-04-27 14:59 | 48.09814 | 16.60907 | 1120 ft | 141 kts | 298° |
| 2026-04-27 15:00 | 48.10249 | 16.59581 | 928 ft | 142 kts | 296° |